sensor_id;sensor_type;location;lat;lon;timestamp;P1;durP1;ratioP1;P2;durP2;ratioP2
6420;SDS011;3243;50.958;7.012;2024-01-30T00:00:37;13.47;;;9.03;;
6420;SDS011;3243;50.958;7.012;2024-01-30T00:03:05;13.37;;;8.70;;
6420;SDS011;3243;50.958;7.012;2024-01-30T00:05:31;9.97;;;8.27;;
6420;SDS011;3243;50.958;7.012;2024-01-30T00:08:00;10.73;;;8.83;;
6420;SDS011;3243;50.958;7.012;2024-01-30T00:10:27;10.83;;;8.57;;
6420;SDS011;3243;50.958;7.012;2024-01-30T00:12:54;12.40;;;8.73;;
6420;SDS011;3243;50.958;7.012;2024-01-30T00:15:21;12.37;;;9.27;;
6420;SDS011;3243;50.958;7.012;2024-01-30T00:17:48;14.30;;;9.17;;
6420;SDS011;3243;50.958;7.012;2024-01-30T00:20:15;12.13;;;8.70;;
6420;SDS011;3243;50.958;7.012;2024-01-30T00:22:42;12.80;;;9.23;;
6420;SDS011;3243;50.958;7.012;2024-01-30T00:25:09;11.60;;;8.47;;
6420;SDS011;3243;50.958;7.012;2024-01-30T00:27:36;13.37;;;9.33;;
6420;SDS011;3243;50.958;7.012;2024-01-30T00:30:03;13.07;;;9.03;;
6420;SDS011;3243;50.958;7.012;2024-01-30T00:32:31;12.17;;;8.83;;
6420;SDS011;3243;50.958;7.012;2024-01-30T00:34:57;14.17;;;9.17;;
6420;SDS011;3243;50.958;7.012;2024-01-30T00:37:25;12.03;;;9.10;;
6420;SDS011;3243;50.958;7.012;2024-01-30T00:39:52;11.87;;;9.50;;
6420;SDS011;3243;50.958;7.012;2024-01-30T00:42:19;13.77;;;9.50;;
6420;SDS011;3243;50.958;7.012;2024-01-30T00:44:46;13.37;;;8.77;;
6420;SDS011;3243;50.958;7.012;2024-01-30T00:47:13;12.10;;;9.13;;
6420;SDS011;3243;50.958;7.012;2024-01-30T00:49:39;12.23;;;8.87;;
6420;SDS011;3243;50.958;7.012;2024-01-30T00:52:07;13.83;;;9.50;;
6420;SDS011;3243;50.958;7.012;2024-01-30T00:54:34;14.83;;;9.00;;
6420;SDS011;3243;50.958;7.012;2024-01-30T00:57:01;15.10;;;9.67;;
6420;SDS011;3243;50.958;7.012;2024-01-30T00:59:28;12.70;;;9.27;;
6420;SDS011;3243;50.958;7.012;2024-01-30T01:01:55;16.53;;;10.03;;
6420;SDS011;3243;50.958;7.012;2024-01-30T01:04:22;16.80;;;9.93;;
6420;SDS011;3243;50.958;7.012;2024-01-30T01:06:49;13.63;;;9.33;;
6420;SDS011;3243;50.958;7.012;2024-01-30T01:09:17;15.40;;;9.07;;
6420;SDS011;3243;50.958;7.012;2024-01-30T01:11:44;13.73;;;9.40;;
6420;SDS011;3243;50.958;7.012;2024-01-30T01:14:10;11.93;;;9.47;;
6420;SDS011;3243;50.958;7.012;2024-01-30T01:16:37;13.27;;;9.57;;
6420;SDS011;3243;50.958;7.012;2024-01-30T01:19:04;15.83;;;8.47;;
6420;SDS011;3243;50.958;7.012;2024-01-30T01:21:31;15.27;;;9.17;;
6420;SDS011;3243;50.958;7.012;2024-01-30T01:23:59;11.43;;;8.53;;
6420;SDS011;3243;50.958;7.012;2024-01-30T01:26:25;12.43;;;9.27;;
6420;SDS011;3243;50.958;7.012;2024-01-30T01:28:53;13.23;;;9.07;;
6420;SDS011;3243;50.958;7.012;2024-01-30T01:31:19;11.90;;;8.17;;
6420;SDS011;3243;50.958;7.012;2024-01-30T01:33:50;11.10;;;8.73;;
6420;SDS011;3243;50.958;7.012;2024-01-30T01:36:18;13.03;;;8.97;;
6420;SDS011;3243;50.958;7.012;2024-01-30T01:38:45;12.57;;;8.80;;
6420;SDS011;3243;50.958;7.012;2024-01-30T01:41:12;10.40;;;8.30;;
6420;SDS011;3243;50.958;7.012;2024-01-30T01:43:38;11.17;;;8.43;;
6420;SDS011;3243;50.958;7.012;2024-01-30T01:46:06;11.37;;;8.73;;
6420;SDS011;3243;50.958;7.012;2024-01-30T01:48:34;14.63;;;8.77;;
6420;SDS011;3243;50.958;7.012;2024-01-30T01:51:01;11.53;;;8.40;;
6420;SDS011;3243;50.958;7.012;2024-01-30T01:53:29;12.93;;;8.73;;
6420;SDS011;3243;50.958;7.012;2024-01-30T01:55:56;12.37;;;8.90;;
6420;SDS011;3243;50.958;7.012;2024-01-30T01:58:23;11.70;;;8.67;;
6420;SDS011;3243;50.958;7.012;2024-01-30T02:00:55;11.37;;;8.40;;
6420;SDS011;3243;50.958;7.012;2024-01-30T02:03:23;15.53;;;8.17;;
6420;SDS011;3243;50.958;7.012;2024-01-30T02:05:50;13.70;;;8.30;;
6420;SDS011;3243;50.958;7.012;2024-01-30T02:08:17;10.57;;;7.97;;
6420;SDS011;3243;50.958;7.012;2024-01-30T02:10:44;12.30;;;8.73;;
6420;SDS011;3243;50.958;7.012;2024-01-30T02:13:11;13.87;;;8.60;;
6420;SDS011;3243;50.958;7.012;2024-01-30T02:15:38;11.97;;;8.73;;
6420;SDS011;3243;50.958;7.012;2024-01-30T02:18:05;11.77;;;8.50;;
6420;SDS011;3243;50.958;7.012;2024-01-30T02:20:33;13.77;;;9.97;;
6420;SDS011;3243;50.958;7.012;2024-01-30T02:23:01;11.47;;;7.90;;
6420;SDS011;3243;50.958;7.012;2024-01-30T02:25:37;12.00;;;8.80;;
6420;SDS011;3243;50.958;7.012;2024-01-30T02:28:11;11.80;;;8.50;;
6420;SDS011;3243;50.958;7.012;2024-01-30T02:30:38;14.07;;;8.70;;
6420;SDS011;3243;50.958;7.012;2024-01-30T02:33:05;11.13;;;8.17;;
6420;SDS011;3243;50.958;7.012;2024-01-30T02:35:33;11.27;;;8.13;;
6420;SDS011;3243;50.958;7.012;2024-01-30T02:38:00;12.17;;;8.60;;
6420;SDS011;3243;50.958;7.012;2024-01-30T02:40:27;11.10;;;8.20;;
6420;SDS011;3243;50.958;7.012;2024-01-30T02:42:54;11.70;;;8.43;;
6420;SDS011;3243;50.958;7.012;2024-01-30T02:45:21;13.40;;;8.43;;
6420;SDS011;3243;50.958;7.012;2024-01-30T02:47:48;10.23;;;7.23;;
6420;SDS011;3243;50.958;7.012;2024-01-30T02:50:15;11.37;;;7.83;;
6420;SDS011;3243;50.958;7.012;2024-01-30T02:52:42;11.10;;;8.33;;
6420;SDS011;3243;50.958;7.012;2024-01-30T02:55:12;11.77;;;8.13;;
6420;SDS011;3243;50.958;7.012;2024-01-30T02:57:39;13.63;;;8.47;;
6420;SDS011;3243;50.958;7.012;2024-01-30T03:00:07;11.17;;;8.00;;
6420;SDS011;3243;50.958;7.012;2024-01-30T03:02:36;12.53;;;8.27;;
6420;SDS011;3243;50.958;7.012;2024-01-30T03:05:03;12.93;;;7.83;;
6420;SDS011;3243;50.958;7.012;2024-01-30T03:07:31;13.37;;;8.00;;
6420;SDS011;3243;50.958;7.012;2024-01-30T03:09:59;10.63;;;7.83;;
6420;SDS011;3243;50.958;7.012;2024-01-30T03:12:26;12.97;;;7.73;;
6420;SDS011;3243;50.958;7.012;2024-01-30T03:14:53;11.60;;;8.03;;
6420;SDS011;3243;50.958;7.012;2024-01-30T03:17:20;11.83;;;8.30;;
6420;SDS011;3243;50.958;7.012;2024-01-30T03:19:47;13.03;;;8.40;;
6420;SDS011;3243;50.958;7.012;2024-01-30T03:22:14;11.17;;;7.60;;
6420;SDS011;3243;50.958;7.012;2024-01-30T03:24:41;10.27;;;7.77;;
6420;SDS011;3243;50.958;7.012;2024-01-30T03:27:09;10.97;;;7.37;;
6420;SDS011;3243;50.958;7.012;2024-01-30T03:29:36;12.43;;;7.77;;
6420;SDS011;3243;50.958;7.012;2024-01-30T03:32:02;11.17;;;8.20;;
6420;SDS011;3243;50.958;7.012;2024-01-30T03:34:30;9.93;;;7.97;;
6420;SDS011;3243;50.958;7.012;2024-01-30T03:36:57;13.53;;;8.37;;
6420;SDS011;3243;50.958;7.012;2024-01-30T03:39:24;12.00;;;7.37;;
6420;SDS011;3243;50.958;7.012;2024-01-30T03:41:51;10.23;;;7.50;;
6420;SDS011;3243;50.958;7.012;2024-01-30T03:44:18;9.70;;;7.43;;
6420;SDS011;3243;50.958;7.012;2024-01-30T03:46:45;11.43;;;8.07;;
6420;SDS011;3243;50.958;7.012;2024-01-30T03:49:12;10.60;;;7.30;;
6420;SDS011;3243;50.958;7.012;2024-01-30T03:51:39;9.97;;;7.73;;
6420;SDS011;3243;50.958;7.012;2024-01-30T03:54:06;10.43;;;7.43;;
6420;SDS011;3243;50.958;7.012;2024-01-30T03:56:34;12.20;;;7.93;;
6420;SDS011;3243;50.958;7.012;2024-01-30T03:59:00;12.83;;;8.03;;
6420;SDS011;3243;50.958;7.012;2024-01-30T04:01:28;13.27;;;7.80;;
6420;SDS011;3243;50.958;7.012;2024-01-30T04:03:55;11.20;;;7.57;;
6420;SDS011;3243;50.958;7.012;2024-01-30T04:06:23;13.07;;;7.57;;
6420;SDS011;3243;50.958;7.012;2024-01-30T04:08:50;10.97;;;7.27;;
6420;SDS011;3243;50.958;7.012;2024-01-30T04:11:18;11.77;;;7.47;;
6420;SDS011;3243;50.958;7.012;2024-01-30T04:13:46;10.43;;;7.10;;
6420;SDS011;3243;50.958;7.012;2024-01-30T04:16:20;11.00;;;7.57;;
6420;SDS011;3243;50.958;7.012;2024-01-30T04:18:51;14.23;;;8.47;;
6420;SDS011;3243;50.958;7.012;2024-01-30T04:21:18;11.43;;;7.10;;
6420;SDS011;3243;50.958;7.012;2024-01-30T04:23:46;12.60;;;7.50;;
6420;SDS011;3243;50.958;7.012;2024-01-30T04:26:14;10.50;;;7.67;;
6420;SDS011;3243;50.958;7.012;2024-01-30T04:28:41;11.20;;;6.97;;
6420;SDS011;3243;50.958;7.012;2024-01-30T04:31:08;12.17;;;7.43;;
6420;SDS011;3243;50.958;7.012;2024-01-30T04:33:35;43.53;;;26.77;;
6420;SDS011;3243;50.958;7.012;2024-01-30T04:36:03;26.10;;;17.40;;
6420;SDS011;3243;50.958;7.012;2024-01-30T04:38:31;16.13;;;12.67;;
6420;SDS011;3243;50.958;7.012;2024-01-30T04:40:58;15.77;;;10.03;;
6420;SDS011;3243;50.958;7.012;2024-01-30T04:43:25;13.27;;;8.47;;
6420;SDS011;3243;50.958;7.012;2024-01-30T04:45:52;8.97;;;7.80;;
6420;SDS011;3243;50.958;7.012;2024-01-30T04:48:19;12.80;;;8.10;;
6420;SDS011;3243;50.958;7.012;2024-01-30T04:50:46;11.83;;;8.17;;
6420;SDS011;3243;50.958;7.012;2024-01-30T04:53:13;10.67;;;8.00;;
6420;SDS011;3243;50.958;7.012;2024-01-30T04:55:40;12.50;;;8.33;;
6420;SDS011;3243;50.958;7.012;2024-01-30T04:58:07;11.83;;;7.70;;
6420;SDS011;3243;50.958;7.012;2024-01-30T05:00:34;14.37;;;8.40;;
6420;SDS011;3243;50.958;7.012;2024-01-30T05:03:01;16.60;;;12.57;;
6420;SDS011;3243;50.958;7.012;2024-01-30T05:05:28;25.43;;;16.37;;
6420;SDS011;3243;50.958;7.012;2024-01-30T05:07:55;16.70;;;12.93;;
6420;SDS011;3243;50.958;7.012;2024-01-30T05:10:22;17.60;;;12.23;;
6420;SDS011;3243;50.958;7.012;2024-01-30T05:12:49;14.03;;;9.80;;
6420;SDS011;3243;50.958;7.012;2024-01-30T05:15:16;13.97;;;9.23;;
6420;SDS011;3243;50.958;7.012;2024-01-30T05:17:43;16.73;;;9.60;;
6420;SDS011;3243;50.958;7.012;2024-01-30T05:20:10;12.17;;;9.10;;
6420;SDS011;3243;50.958;7.012;2024-01-30T05:22:38;16.33;;;8.60;;
6420;SDS011;3243;50.958;7.012;2024-01-30T05:25:13;12.87;;;9.23;;
6420;SDS011;3243;50.958;7.012;2024-01-30T05:27:40;14.00;;;9.33;;
6420;SDS011;3243;50.958;7.012;2024-01-30T05:30:07;14.80;;;8.80;;
6420;SDS011;3243;50.958;7.012;2024-01-30T05:32:35;10.97;;;8.07;;
6420;SDS011;3243;50.958;7.012;2024-01-30T05:35:02;13.20;;;8.67;;
6420;SDS011;3243;50.958;7.012;2024-01-30T05:37:30;13.93;;;8.90;;
6420;SDS011;3243;50.958;7.012;2024-01-30T05:39:57;16.23;;;9.27;;
6420;SDS011;3243;50.958;7.012;2024-01-30T05:42:25;11.33;;;8.97;;
6420;SDS011;3243;50.958;7.012;2024-01-30T05:44:52;12.13;;;8.90;;
6420;SDS011;3243;50.958;7.012;2024-01-30T05:47:18;14.10;;;8.77;;
6420;SDS011;3243;50.958;7.012;2024-01-30T05:49:45;12.50;;;9.40;;
6420;SDS011;3243;50.958;7.012;2024-01-30T05:52:12;12.50;;;8.70;;
6420;SDS011;3243;50.958;7.012;2024-01-30T05:54:39;14.67;;;8.80;;
6420;SDS011;3243;50.958;7.012;2024-01-30T05:57:06;11.67;;;7.37;;
6420;SDS011;3243;50.958;7.012;2024-01-30T05:59:33;10.47;;;8.27;;
6420;SDS011;3243;50.958;7.012;2024-01-30T06:02:02;12.77;;;8.10;;
6420;SDS011;3243;50.958;7.012;2024-01-30T06:04:29;12.93;;;7.83;;
6420;SDS011;3243;50.958;7.012;2024-01-30T06:06:56;12.97;;;8.63;;
6420;SDS011;3243;50.958;7.012;2024-01-30T06:09:23;10.97;;;8.27;;
6420;SDS011;3243;50.958;7.012;2024-01-30T06:11:50;11.93;;;7.93;;
6420;SDS011;3243;50.958;7.012;2024-01-30T06:14:16;12.87;;;8.90;;
6420;SDS011;3243;50.958;7.012;2024-01-30T06:16:43;12.13;;;8.27;;
6420;SDS011;3243;50.958;7.012;2024-01-30T06:19:10;10.63;;;8.33;;
6420;SDS011;3243;50.958;7.012;2024-01-30T06:21:37;10.67;;;8.03;;
6420;SDS011;3243;50.958;7.012;2024-01-30T06:24:04;14.03;;;8.53;;
6420;SDS011;3243;50.958;7.012;2024-01-30T06:26:31;10.13;;;7.90;;
6420;SDS011;3243;50.958;7.012;2024-01-30T06:28:59;13.33;;;8.80;;
6420;SDS011;3243;50.958;7.012;2024-01-30T06:31:26;12.40;;;8.90;;
6420;SDS011;3243;50.958;7.012;2024-01-30T06:33:53;12.23;;;8.47;;
6420;SDS011;3243;50.958;7.012;2024-01-30T06:36:20;10.17;;;8.47;;
6420;SDS011;3243;50.958;7.012;2024-01-30T06:38:47;11.87;;;8.93;;
6420;SDS011;3243;50.958;7.012;2024-01-30T06:41:14;10.67;;;8.23;;
6420;SDS011;3243;50.958;7.012;2024-01-30T06:43:41;12.63;;;8.67;;
6420;SDS011;3243;50.958;7.012;2024-01-30T06:46:08;11.23;;;7.90;;
6420;SDS011;3243;50.958;7.012;2024-01-30T06:48:35;9.70;;;7.80;;
6420;SDS011;3243;50.958;7.012;2024-01-30T06:51:03;12.87;;;7.73;;
6420;SDS011;3243;50.958;7.012;2024-01-30T06:53:30;13.33;;;7.73;;
6420;SDS011;3243;50.958;7.012;2024-01-30T06:55:56;13.03;;;7.83;;
6420;SDS011;3243;50.958;7.012;2024-01-30T06:58:23;11.60;;;8.00;;
6420;SDS011;3243;50.958;7.012;2024-01-30T07:00:51;12.87;;;7.70;;
6420;SDS011;3243;50.958;7.012;2024-01-30T07:03:17;9.77;;;7.40;;
6420;SDS011;3243;50.958;7.012;2024-01-30T07:05:45;11.50;;;7.40;;
6420;SDS011;3243;50.958;7.012;2024-01-30T07:08:11;11.57;;;7.33;;
6420;SDS011;3243;50.958;7.012;2024-01-30T07:10:39;11.23;;;8.37;;
6420;SDS011;3243;50.958;7.012;2024-01-30T07:13:05;11.93;;;8.60;;
6420;SDS011;3243;50.958;7.012;2024-01-30T07:15:32;14.43;;;7.83;;
6420;SDS011;3243;50.958;7.012;2024-01-30T07:18:00;16.00;;;8.13;;
6420;SDS011;3243;50.958;7.012;2024-01-30T07:20:26;10.93;;;7.40;;
6420;SDS011;3243;50.958;7.012;2024-01-30T07:22:54;10.93;;;8.17;;
6420;SDS011;3243;50.958;7.012;2024-01-30T07:25:20;15.23;;;8.67;;
6420;SDS011;3243;50.958;7.012;2024-01-30T07:27:47;13.90;;;8.17;;
6420;SDS011;3243;50.958;7.012;2024-01-30T07:30:14;9.57;;;7.70;;
6420;SDS011;3243;50.958;7.012;2024-01-30T07:32:43;11.47;;;7.90;;
6420;SDS011;3243;50.958;7.012;2024-01-30T07:35:10;14.30;;;8.60;;
6420;SDS011;3243;50.958;7.012;2024-01-30T07:37:37;12.80;;;8.10;;
6420;SDS011;3243;50.958;7.012;2024-01-30T07:40:05;11.27;;;8.50;;
6420;SDS011;3243;50.958;7.012;2024-01-30T07:42:33;10.80;;;8.27;;
6420;SDS011;3243;50.958;7.012;2024-01-30T07:45:00;10.43;;;8.33;;
6420;SDS011;3243;50.958;7.012;2024-01-30T07:47:27;12.63;;;7.63;;
6420;SDS011;3243;50.958;7.012;2024-01-30T07:49:54;11.07;;;8.20;;
6420;SDS011;3243;50.958;7.012;2024-01-30T07:52:21;10.10;;;7.47;;
6420;SDS011;3243;50.958;7.012;2024-01-30T07:54:48;11.17;;;8.00;;
6420;SDS011;3243;50.958;7.012;2024-01-30T07:57:15;9.83;;;7.53;;
6420;SDS011;3243;50.958;7.012;2024-01-30T07:59:43;10.20;;;7.40;;
6420;SDS011;3243;50.958;7.012;2024-01-30T08:02:13;12.60;;;8.63;;
6420;SDS011;3243;50.958;7.012;2024-01-30T08:04:40;12.97;;;7.83;;
6420;SDS011;3243;50.958;7.012;2024-01-30T08:07:08;9.67;;;7.33;;
6420;SDS011;3243;50.958;7.012;2024-01-30T08:09:35;11.70;;;7.97;;
6420;SDS011;3243;50.958;7.012;2024-01-30T08:12:02;10.77;;;7.30;;
6420;SDS011;3243;50.958;7.012;2024-01-30T08:14:29;12.73;;;7.80;;
6420;SDS011;3243;50.958;7.012;2024-01-30T08:16:56;11.80;;;7.73;;
6420;SDS011;3243;50.958;7.012;2024-01-30T08:19:23;13.57;;;8.00;;
6420;SDS011;3243;50.958;7.012;2024-01-30T08:21:50;11.17;;;7.47;;
6420;SDS011;3243;50.958;7.012;2024-01-30T08:24:17;13.67;;;7.87;;
6420;SDS011;3243;50.958;7.012;2024-01-30T08:26:44;11.27;;;7.00;;
6420;SDS011;3243;50.958;7.012;2024-01-30T08:29:11;10.73;;;7.27;;
6420;SDS011;3243;50.958;7.012;2024-01-30T08:31:38;11.33;;;7.40;;
6420;SDS011;3243;50.958;7.012;2024-01-30T08:34:05;9.93;;;7.37;;
6420;SDS011;3243;50.958;7.012;2024-01-30T08:36:32;11.50;;;7.60;;
6420;SDS011;3243;50.958;7.012;2024-01-30T08:38:59;12.87;;;7.17;;
6420;SDS011;3243;50.958;7.012;2024-01-30T08:41:30;10.60;;;7.67;;
6420;SDS011;3243;50.958;7.012;2024-01-30T08:43:57;11.40;;;7.77;;
6420;SDS011;3243;50.958;7.012;2024-01-30T08:46:24;10.13;;;7.53;;
6420;SDS011;3243;50.958;7.012;2024-01-30T08:48:51;13.00;;;7.53;;
6420;SDS011;3243;50.958;7.012;2024-01-30T08:51:19;9.20;;;7.40;;
6420;SDS011;3243;50.958;7.012;2024-01-30T08:53:46;11.27;;;7.77;;
6420;SDS011;3243;50.958;7.012;2024-01-30T08:56:13;12.93;;;7.97;;
6420;SDS011;3243;50.958;7.012;2024-01-30T08:58:42;10.73;;;7.43;;
6420;SDS011;3243;50.958;7.012;2024-01-30T09:01:09;11.83;;;7.63;;
6420;SDS011;3243;50.958;7.012;2024-01-30T09:03:36;11.67;;;7.90;;
6420;SDS011;3243;50.958;7.012;2024-01-30T09:06:09;11.13;;;7.40;;
6420;SDS011;3243;50.958;7.012;2024-01-30T09:08:37;10.63;;;6.97;;
6420;SDS011;3243;50.958;7.012;2024-01-30T09:11:11;8.43;;;6.93;;
6420;SDS011;3243;50.958;7.012;2024-01-30T09:13:39;8.90;;;7.30;;
6420;SDS011;3243;50.958;7.012;2024-01-30T09:16:06;10.03;;;6.70;;
6420;SDS011;3243;50.958;7.012;2024-01-30T09:18:33;11.40;;;7.67;;
6420;SDS011;3243;50.958;7.012;2024-01-30T09:21:00;10.50;;;7.03;;
6420;SDS011;3243;50.958;7.012;2024-01-30T09:23:27;9.53;;;6.83;;
6420;SDS011;3243;50.958;7.012;2024-01-30T09:25:54;12.27;;;7.60;;
6420;SDS011;3243;50.958;7.012;2024-01-30T09:28:21;11.50;;;7.60;;
6420;SDS011;3243;50.958;7.012;2024-01-30T09:30:52;9.77;;;6.87;;
6420;SDS011;3243;50.958;7.012;2024-01-30T09:33:19;10.10;;;7.30;;
6420;SDS011;3243;50.958;7.012;2024-01-30T09:35:46;10.10;;;6.97;;
6420;SDS011;3243;50.958;7.012;2024-01-30T09:38:13;9.23;;;7.20;;
6420;SDS011;3243;50.958;7.012;2024-01-30T09:40:40;10.43;;;7.67;;
6420;SDS011;3243;50.958;7.012;2024-01-30T09:43:08;12.37;;;7.13;;
6420;SDS011;3243;50.958;7.012;2024-01-30T09:45:41;13.90;;;7.87;;
6420;SDS011;3243;50.958;7.012;2024-01-30T09:48:11;11.73;;;7.30;;
6420;SDS011;3243;50.958;7.012;2024-01-30T09:50:38;11.07;;;7.00;;
6420;SDS011;3243;50.958;7.012;2024-01-30T09:53:06;9.23;;;7.10;;
6420;SDS011;3243;50.958;7.012;2024-01-30T09:55:35;15.40;;;8.47;;
6420;SDS011;3243;50.958;7.012;2024-01-30T09:58:03;13.67;;;8.50;;
6420;SDS011;3243;50.958;7.012;2024-01-30T10:00:30;12.67;;;8.40;;
6420;SDS011;3243;50.958;7.012;2024-01-30T10:02:57;12.63;;;8.70;;
6420;SDS011;3243;50.958;7.012;2024-01-30T10:05:26;13.87;;;8.80;;
6420;SDS011;3243;50.958;7.012;2024-01-30T10:07:55;14.90;;;7.60;;
6420;SDS011;3243;50.958;7.012;2024-01-30T10:10:23;11.50;;;7.20;;
6420;SDS011;3243;50.958;7.012;2024-01-30T10:12:50;11.57;;;7.40;;
6420;SDS011;3243;50.958;7.012;2024-01-30T10:15:18;13.97;;;7.40;;
6420;SDS011;3243;50.958;7.012;2024-01-30T10:17:45;12.77;;;7.20;;
6420;SDS011;3243;50.958;7.012;2024-01-30T10:20:12;10.47;;;7.03;;
6420;SDS011;3243;50.958;7.012;2024-01-30T10:22:40;12.33;;;7.17;;
6420;SDS011;3243;50.958;7.012;2024-01-30T10:25:10;13.17;;;8.03;;
6420;SDS011;3243;50.958;7.012;2024-01-30T10:27:39;12.53;;;6.90;;
6420;SDS011;3243;50.958;7.012;2024-01-30T10:30:06;14.47;;;7.50;;
6420;SDS011;3243;50.958;7.012;2024-01-30T10:32:34;14.23;;;7.50;;
6420;SDS011;3243;50.958;7.012;2024-01-30T10:35:01;12.27;;;6.60;;
6420;SDS011;3243;50.958;7.012;2024-01-30T10:37:28;10.60;;;6.63;;
6420;SDS011;3243;50.958;7.012;2024-01-30T10:40:00;12.13;;;7.07;;
6420;SDS011;3243;50.958;7.012;2024-01-30T10:42:32;13.80;;;6.53;;
6420;SDS011;3243;50.958;7.012;2024-01-30T10:47:31;10.53;;;6.80;;
6420;SDS011;3243;50.958;7.012;2024-01-30T10:50:00;10.17;;;6.60;;
6420;SDS011;3243;50.958;7.012;2024-01-30T10:52:28;8.93;;;6.80;;
6420;SDS011;3243;50.958;7.012;2024-01-30T10:54:56;9.90;;;6.80;;
6420;SDS011;3243;50.958;7.012;2024-01-30T10:57:23;12.00;;;6.83;;
6420;SDS011;3243;50.958;7.012;2024-01-30T10:59:52;14.97;;;7.00;;
6420;SDS011;3243;50.958;7.012;2024-01-30T11:02:28;11.47;;;7.10;;
6420;SDS011;3243;50.958;7.012;2024-01-30T11:04:58;11.53;;;6.80;;
6420;SDS011;3243;50.958;7.012;2024-01-30T11:07:27;9.43;;;6.57;;
6420;SDS011;3243;50.958;7.012;2024-01-30T11:12:32;8.97;;;6.97;;
6420;SDS011;3243;50.958;7.012;2024-01-30T11:15:06;9.33;;;6.10;;
6420;SDS011;3243;50.958;7.012;2024-01-30T11:17:43;9.77;;;6.70;;
6420;SDS011;3243;50.958;7.012;2024-01-30T11:20:12;10.43;;;6.23;;
6420;SDS011;3243;50.958;7.012;2024-01-30T11:22:50;9.27;;;6.10;;
6420;SDS011;3243;50.958;7.012;2024-01-30T11:25:21;10.53;;;6.50;;
6420;SDS011;3243;50.958;7.012;2024-01-30T11:27:50;10.90;;;6.60;;
6420;SDS011;3243;50.958;7.012;2024-01-30T11:35:34;8.83;;;6.70;;
6420;SDS011;3243;50.958;7.012;2024-01-30T11:38:03;10.73;;;6.90;;
6420;SDS011;3243;50.958;7.012;2024-01-30T11:40:30;11.27;;;6.43;;
6420;SDS011;3243;50.958;7.012;2024-01-30T11:43:00;10.30;;;6.67;;
6420;SDS011;3243;50.958;7.012;2024-01-30T11:45:28;9.33;;;6.30;;
6420;SDS011;3243;50.958;7.012;2024-01-30T11:47:56;9.63;;;6.17;;
6420;SDS011;3243;50.958;7.012;2024-01-30T11:50:24;11.20;;;6.83;;
6420;SDS011;3243;50.958;7.012;2024-01-30T11:52:51;10.10;;;6.57;;
6420;SDS011;3243;50.958;7.012;2024-01-30T11:55:18;10.57;;;6.80;;
6420;SDS011;3243;50.958;7.012;2024-01-30T11:57:46;13.90;;;6.80;;
6420;SDS011;3243;50.958;7.012;2024-01-30T12:00:16;12.50;;;6.80;;
6420;SDS011;3243;50.958;7.012;2024-01-30T12:02:48;12.57;;;6.80;;
6420;SDS011;3243;50.958;7.012;2024-01-30T12:05:24;12.17;;;6.83;;
6420;SDS011;3243;50.958;7.012;2024-01-30T12:07:51;9.73;;;6.90;;
6420;SDS011;3243;50.958;7.012;2024-01-30T12:10:19;11.17;;;6.87;;
6420;SDS011;3243;50.958;7.012;2024-01-30T12:12:47;13.77;;;6.80;;
6420;SDS011;3243;50.958;7.012;2024-01-30T12:15:16;11.30;;;6.33;;
6420;SDS011;3243;50.958;7.012;2024-01-30T12:17:44;12.43;;;7.10;;
6420;SDS011;3243;50.958;7.012;2024-01-30T12:22:42;12.30;;;7.37;;
6420;SDS011;3243;50.958;7.012;2024-01-30T12:25:11;10.93;;;7.13;;
6420;SDS011;3243;50.958;7.012;2024-01-30T12:27:42;12.97;;;7.03;;
6420;SDS011;3243;50.958;7.012;2024-01-30T12:30:10;11.20;;;6.90;;
6420;SDS011;3243;50.958;7.012;2024-01-30T12:32:41;13.20;;;7.00;;
6420;SDS011;3243;50.958;7.012;2024-01-30T12:35:10;10.70;;;6.90;;
6420;SDS011;3243;50.958;7.012;2024-01-30T12:37:38;11.10;;;6.50;;
6420;SDS011;3243;50.958;7.012;2024-01-30T12:40:09;9.30;;;6.90;;
6420;SDS011;3243;50.958;7.012;2024-01-30T12:42:39;11.77;;;6.77;;
6420;SDS011;3243;50.958;7.012;2024-01-30T12:45:08;10.37;;;6.80;;
6420;SDS011;3243;50.958;7.012;2024-01-30T12:47:38;15.50;;;7.23;;
6420;SDS011;3243;50.958;7.012;2024-01-30T12:50:05;11.40;;;7.00;;
6420;SDS011;3243;50.958;7.012;2024-01-30T12:52:32;10.97;;;7.00;;
6420;SDS011;3243;50.958;7.012;2024-01-30T12:54:59;13.03;;;6.60;;
6420;SDS011;3243;50.958;7.012;2024-01-30T12:57:26;13.37;;;7.10;;
6420;SDS011;3243;50.958;7.012;2024-01-30T12:59:53;12.23;;;6.87;;
6420;SDS011;3243;50.958;7.012;2024-01-30T13:02:20;9.73;;;6.73;;
6420;SDS011;3243;50.958;7.012;2024-01-30T13:04:48;11.90;;;6.27;;
6420;SDS011;3243;50.958;7.012;2024-01-30T13:07:16;13.73;;;6.40;;
6420;SDS011;3243;50.958;7.012;2024-01-30T13:09:43;10.33;;;6.50;;
6420;SDS011;3243;50.958;7.012;2024-01-30T13:12:11;11.80;;;6.40;;
6420;SDS011;3243;50.958;7.012;2024-01-30T13:14:38;14.20;;;6.60;;
6420;SDS011;3243;50.958;7.012;2024-01-30T13:17:05;11.40;;;5.97;;
6420;SDS011;3243;50.958;7.012;2024-01-30T13:19:33;12.70;;;6.40;;
6420;SDS011;3243;50.958;7.012;2024-01-30T13:22:00;11.17;;;6.40;;
6420;SDS011;3243;50.958;7.012;2024-01-30T13:24:27;8.83;;;6.00;;
6420;SDS011;3243;50.958;7.012;2024-01-30T13:26:54;8.43;;;5.80;;
6420;SDS011;3243;50.958;7.012;2024-01-30T13:29:21;11.83;;;6.50;;
6420;SDS011;3243;50.958;7.012;2024-01-30T13:31:48;10.20;;;6.23;;
6420;SDS011;3243;50.958;7.012;2024-01-30T13:34:15;10.57;;;5.90;;
6420;SDS011;3243;50.958;7.012;2024-01-30T13:36:43;11.87;;;6.33;;
6420;SDS011;3243;50.958;7.012;2024-01-30T13:39:11;8.47;;;6.23;;
6420;SDS011;3243;50.958;7.012;2024-01-30T13:41:39;11.30;;;6.00;;
6420;SDS011;3243;50.958;7.012;2024-01-30T13:44:08;12.70;;;6.67;;
6420;SDS011;3243;50.958;7.012;2024-01-30T13:46:35;10.67;;;6.33;;
6420;SDS011;3243;50.958;7.012;2024-01-30T13:49:03;12.50;;;6.33;;
6420;SDS011;3243;50.958;7.012;2024-01-30T13:51:30;8.77;;;5.80;;
6420;SDS011;3243;50.958;7.012;2024-01-30T13:53:57;11.57;;;5.70;;
6420;SDS011;3243;50.958;7.012;2024-01-30T13:56:23;11.90;;;6.00;;
6420;SDS011;3243;50.958;7.012;2024-01-30T13:58:51;10.30;;;5.40;;
6420;SDS011;3243;50.958;7.012;2024-01-30T14:01:19;7.93;;;5.20;;
6420;SDS011;3243;50.958;7.012;2024-01-30T14:03:46;11.10;;;5.27;;
6420;SDS011;3243;50.958;7.012;2024-01-30T14:06:13;10.47;;;4.83;;
6420;SDS011;3243;50.958;7.012;2024-01-30T14:08:40;6.03;;;4.70;;
6420;SDS011;3243;50.958;7.012;2024-01-30T14:11:11;8.13;;;4.37;;
6420;SDS011;3243;50.958;7.012;2024-01-30T14:13:38;9.20;;;4.80;;
6420;SDS011;3243;50.958;7.012;2024-01-30T14:16:05;7.93;;;4.60;;
6420;SDS011;3243;50.958;7.012;2024-01-30T14:18:33;7.57;;;4.57;;
6420;SDS011;3243;50.958;7.012;2024-01-30T14:21:00;9.67;;;4.80;;
6420;SDS011;3243;50.958;7.012;2024-01-30T14:23:27;5.90;;;4.43;;
6420;SDS011;3243;50.958;7.012;2024-01-30T14:25:54;10.43;;;5.77;;
6420;SDS011;3243;50.958;7.012;2024-01-30T14:28:21;12.23;;;6.73;;
6420;SDS011;3243;50.958;7.012;2024-01-30T14:30:48;8.70;;;5.47;;
6420;SDS011;3243;50.958;7.012;2024-01-30T14:33:16;8.20;;;5.13;;
6420;SDS011;3243;50.958;7.012;2024-01-30T14:35:42;7.77;;;5.00;;
6420;SDS011;3243;50.958;7.012;2024-01-30T14:38:10;7.80;;;4.77;;
6420;SDS011;3243;50.958;7.012;2024-01-30T14:40:38;7.00;;;5.47;;
6420;SDS011;3243;50.958;7.012;2024-01-30T14:43:06;9.23;;;5.80;;
6420;SDS011;3243;50.958;7.012;2024-01-30T14:45:33;7.57;;;5.03;;
6420;SDS011;3243;50.958;7.012;2024-01-30T14:48:00;7.83;;;5.33;;
6420;SDS011;3243;50.958;7.012;2024-01-30T14:50:28;6.00;;;5.00;;
6420;SDS011;3243;50.958;7.012;2024-01-30T14:52:55;11.57;;;7.13;;
6420;SDS011;3243;50.958;7.012;2024-01-30T14:55:22;9.13;;;5.83;;
6420;SDS011;3243;50.958;7.012;2024-01-30T14:57:50;9.37;;;6.40;;
6420;SDS011;3243;50.958;7.012;2024-01-30T15:00:17;11.27;;;6.53;;
6420;SDS011;3243;50.958;7.012;2024-01-30T15:02:44;11.33;;;6.00;;
6420;SDS011;3243;50.958;7.012;2024-01-30T15:05:13;7.83;;;5.70;;
6420;SDS011;3243;50.958;7.012;2024-01-30T15:07:40;7.97;;;5.97;;
6420;SDS011;3243;50.958;7.012;2024-01-30T15:10:08;8.47;;;5.23;;
6420;SDS011;3243;50.958;7.012;2024-01-30T15:12:36;6.90;;;4.90;;
6420;SDS011;3243;50.958;7.012;2024-01-30T15:15:04;8.70;;;5.07;;
6420;SDS011;3243;50.958;7.012;2024-01-30T15:17:33;10.80;;;5.70;;